Time,TemperatureF,DewpointF,PressureIn,WindDirection,WindDirectionDegrees,WindSpeedMPH,WindSpeedGustMPH,Humidity,HourlyPrecipIn,Conditions,Clouds,dailyrainin,SoftwareType,DateUTC
2013-03-30 00:03:00,34.0,29.9,29.59,NE,45,0.0,0.0,85,0.00,RA,SCT,0.00,WeatherDisplay:10.37,2013-03-30 08:03:00,
2013-03-30 00:08:00,34.0,29.9,29.59,NE,45,0.0,0.0,85,0.00,RA,SCT,0.00,WeatherDisplay:10.37,2013-03-30 08:08:00,
2013-03-30 00:13:00,33.8,29.8,29.59,NE,45,0.0,0.0,85,0.00,CLR,SCT,0.00,WeatherDisplay:10.37,2013-03-30 08:13:00,
2013-03-30 00:18:00,33.8,29.8,29.59,NE,45,0.0,0.0,85,0.00,CLR,SCT,0.00,WeatherDisplay:10.37,2013-03-30 08:18:00,
2013-03-30 00:23:00,33.6,29.9,29.59,NE,45,0.0,0.0,86,0.00,CLR,SCT,0.00,WeatherDisplay:10.37,2013-03-30 08:23:00,
2013-03-30 00:28:00,33.6,29.9,29.59,NE,45,0.0,0.0,86,0.00,CLR,SCT,0.00,WeatherDisplay:10.37,2013-03-30 08:28:00,
2013-03-30 00:33:00,33.6,30.2,29.59,NE,45,0.0,0.0,87,0.00,CLR,SCT,0.00,WeatherDisplay:10.37,2013-03-30 08:33:00,
2013-03-30 00:38:00,33.4,30.0,29.59,NE,45,0.0,0.0,87,0.00,CLR,SCT,0.00,WeatherDisplay:10.37,2013-03-30 08:38:00,
2013-03-30 00:43:00,33.4,30.0,29.59,NE,45,0.0,0.0,87,0.00,CLR,SCT,0.00,WeatherDisplay:10.37,2013-03-30 08:43:00,
2013-03-30 00:48:00,33.4,30.3,29.59,NE,45,0.0,0.0,88,0.00,CLR,SCT,0.00,WeatherDisplay:10.37,2013-03-30 08:48:00,
2013-03-30 00:53:00,33.4,30.3,29.59,NE,45,0.0,0.0,88,0.00,CLR,SCT,0.00,WeatherDisplay:10.37,2013-03-30 08:53:00,
2013-03-30 00:58:00,33.6,30.4,29.59,NE,45,0.0,0.0,88,0.00,CLR,SCT,0.00,WeatherDisplay:10.37,2013-03-30 08:58:00,
2013-03-30 01:03:00,33.6,30.4,29.62,NE,45,0.0,0.0,88,0.00,CLR,SCT,0.00,WeatherDisplay:10.37,2013-03-30 09:03:00,
2013-03-30 01:08:00,33.6,30.7,29.62,NE,45,0.0,0.0,89,0.00,CLR,SCT,0.00,WeatherDisplay:10.37,2013-03-30 09:08:00,
2013-03-30 01:13:00,33.6,30.7,29.62,NE,45,0.0,0.0,89,0.00,CLR,SCT,0.00,WeatherDisplay:10.37,2013-03-30 09:13:00,
2013-03-30 01:18:00,33.8,30.9,29.59,NE,45,0.0,0.0,89,0.00,CLR,SCT,0.00,WeatherDisplay:10.37,2013-03-30 09:18:00,
2013-03-30 01:23:00,33.8,30.9,29.59,NE,45,0.0,0.0,89,0.00,CLR,SCT,0.00,WeatherDisplay:10.37,2013-03-30 09:23:00,
2013-03-30 01:28:00,34.0,31.1,29.59,NE,45,0.0,0.0,89,0.00,CLR,SCT,0.00,WeatherDisplay:10.37,2013-03-30 09:28:00,
2013-03-30 01:33:00,34.3,31.7,29.62,NE,45,0.0,0.0,90,0.00,CLR,SCT,0.00,WeatherDisplay:10.37,2013-03-30 09:33:00,
2013-03-30 01:34:00,34.3,31.7,29.62,NE,45,0.0,0.0,90,0.00,CLR,SCT,0.00,WeatherDisplay:10.37,2013-03-30 09:34:00,
2013-03-30 01:39:00,34.5,31.9,29.62,NE,45,0.0,0.0,90,0.00,CLR,SCT,0.00,WeatherDisplay:10.37,2013-03-30 09:39:00,
2013-03-30 01:44:00,34.5,31.9,29.62,NE,45,0.0,0.0,90,0.00,CLR,SCT,0.00,WeatherDisplay:10.37,2013-03-30 09:44:00,
2013-03-30 01:49:00,34.9,32.5,29.62,NE,45,0.0,0.0,91,0.00,CLR,SCT,0.00,WeatherDisplay:10.37,2013-03-30 09:49:00,
2013-03-30 01:54:00,35.2,32.9,29.62,NE,45,0.0,0.0,91,0.00,CLR,SCT,0.00,WeatherDisplay:10.37,2013-03-30 09:54:00,
2013-03-30 01:59:00,35.4,33.1,29.62,NE,45,0.0,0.0,91,0.00,CLR,SCT,0.00,WeatherDisplay:10.37,2013-03-30 09:59:00,
2013-03-30 02:04:00,35.2,32.9,29.62,NE,45,0.0,0.0,91,0.00,CLR,SCT,0.00,WeatherDisplay:10.37,2013-03-30 10:04:00,
2013-03-30 02:09:00,35.4,33.1,29.62,NE,45,0.0,0.0,91,0.00,CLR,SCT,0.00,WeatherDisplay:10.37,2013-03-30 10:09:00,
2013-03-30 02:14:00,35.4,33.1,29.62,NE,45,0.0,0.0,91,0.00,CLR,SCT,0.00,WeatherDisplay:10.37,2013-03-30 10:14:00,
2013-03-30 02:19:00,35.4,33.1,29.62,NE,45,0.0,0.0,91,0.00,CLR,SCT,0.00,WeatherDisplay:10.37,2013-03-30 10:19:00,
2013-03-30 02:24:00,35.4,33.1,29.62,NE,45,0.0,0.0,91,0.00,CLR,SCT,0.00,WeatherDisplay:10.37,2013-03-30 10:24:00,
2013-03-30 02:29:00,35.2,32.9,29.62,NE,45,0.0,0.0,91,0.00,CLR,SCT,0.00,WeatherDisplay:10.37,2013-03-30 10:29:00,
2013-03-30 02:34:00,35.1,32.7,29.62,NE,45,0.0,0.0,91,0.00,CLR,SCT,0.00,WeatherDisplay:10.37,2013-03-30 10:34:00,
2013-03-30 02:39:00,35.1,32.4,29.62,NE,45,0.0,0.0,90,0.00,CLR,SCT,0.00,WeatherDisplay:10.37,2013-03-30 10:39:00,
2013-03-30 02:44:00,35.1,32.4,29.62,NE,45,0.0,0.0,90,0.00,CLR,SCT,0.00,WeatherDisplay:10.37,2013-03-30 10:44:00,
2013-03-30 02:49:00,35.1,32.7,29.65,ENE,68,2.3,0.0,91,0.00,CLR,SCT,0.00,WeatherDisplay:10.37,2013-03-30 10:49:00,
2013-03-30 02:54:00,35.1,32.7,29.65,ENE,68,2.3,2.3,91,0.00,CLR,SCT,0.00,WeatherDisplay:10.37,2013-03-30 10:54:00,
2013-03-30 02:59:00,35.2,32.9,29.65,ENE,68,0.0,0.0,91,0.00,CLR,SCT,0.00,WeatherDisplay:10.37,2013-03-30 10:59:00,
2013-03-30 03:04:00,35.4,33.1,29.62,ENE,68,0.0,0.0,91,0.00,CLR,SCT,0.00,WeatherDisplay:10.37,2013-03-30 11:04:00,
2013-03-30 03:09:00,35.4,33.1,29.62,ENE,68,0.0,0.0,91,0.00,CLR,SCT,0.00,WeatherDisplay:10.37,2013-03-30 11:09:00,
2013-03-30 03:14:00,35.6,33.2,29.62,ENE,68,0.0,0.0,91,0.00,CLR,SCT,0.00,WeatherDisplay:10.37,2013-03-30 11:14:00,
2013-03-30 03:19:00,35.8,33.7,29.62,ENE,68,0.0,0.0,92,0.00,CLR,SCT,0.00,WeatherDisplay:10.37,2013-03-30 11:19:00,
2013-03-30 03:24:00,36.0,33.9,29.62,ENE,68,0.0,0.0,92,0.00,CLR,SCT,0.00,WeatherDisplay:10.37,2013-03-30 11:24:00,
2013-03-30 03:29:00,36.1,34.0,29.62,ENE,68,0.0,0.0,92,0.00,CLR,SCT,0.00,WeatherDisplay:10.37,2013-03-30 11:29:00,
2013-03-30 03:34:00,36.3,34.2,29.62,ENE,68,0.0,0.0,92,0.00,CLR,SCT,0.00,WeatherDisplay:10.37,2013-03-30 11:34:00,
2013-03-30 03:39:00,36.3,34.2,29.62,ENE,68,0.0,0.0,92,0.00,CLR,SCT,0.00,WeatherDisplay:10.37,2013-03-30 11:39:00,
2013-03-30 03:44:00,36.5,34.7,29.62,ENE,68,0.0,0.0,93,0.00,CLR,SCT,0.00,WeatherDisplay:10.37,2013-03-30 11:44:00,
2013-03-30 03:49:00,36.7,34.8,29.65,ENE,68,0.0,0.0,93,0.00,CLR,SCT,0.00,WeatherDisplay:10.37,2013-03-30 11:49:00,
2013-03-30 03:54:00,36.9,35.0,29.65,ENE,68,0.0,0.0,93,0.00,CLR,SCT,0.00,WeatherDisplay:10.37,2013-03-30 11:54:00,
2013-03-30 03:59:00,37.0,35.2,29.65,ENE,68,0.0,0.0,93,0.00,CLR,SCT,0.00,WeatherDisplay:10.37,2013-03-30 11:59:00,
2013-03-30 04:04:00,37.2,35.7,29.65,ENE,68,0.0,0.0,94,0.00,CLR,SCT,0.00,WeatherDisplay:10.37,2013-03-30 12:04:00,
2013-03-30 04:09:00,37.4,35.6,29.65,ENE,68,0.0,0.0,93,0.00,CLR,SCT,0.00,WeatherDisplay:10.37,2013-03-30 12:09:00,
2013-03-30 04:14:00,37.6,35.7,29.65,ENE,68,0.0,0.0,93,0.00,CLR,SCT,0.00,WeatherDisplay:10.37,2013-03-30 12:14:00,
2013-03-30 04:19:00,37.8,36.2,29.65,ENE,68,0.0,0.0,94,0.00,CLR,SCT,0.00,WeatherDisplay:10.37,2013-03-30 12:19:00,
2013-03-30 04:24:00,37.9,36.4,29.65,ENE,68,0.0,0.0,94,0.00,CLR,SCT,0.00,WeatherDisplay:10.37,2013-03-30 12:24:00,
2013-03-30 04:29:00,38.1,36.5,29.65,ENE,68,0.0,0.0,94,0.00,CLR,SCT,0.00,WeatherDisplay:10.37,2013-03-30 12:29:00,
2013-03-30 04:34:00,38.3,36.7,29.65,ENE,68,0.0,0.0,94,0.00,CLR,SCT,0.00,WeatherDisplay:10.37,2013-03-30 12:34:00,
2013-03-30 04:39:00,38.5,36.9,29.65,ENE,68,0.0,0.0,94,0.00,CLR,SCT,0.00,WeatherDisplay:10.37,2013-03-30 12:39:00,
2013-03-30 04:44:00,38.7,37.1,29.65,ENE,68,0.0,0.0,94,0.00,CLR,SCT,0.00,WeatherDisplay:10.37,2013-03-30 12:44:00,
2013-03-30 04:49:00,38.8,37.3,29.65,ENE,68,0.0,0.0,94,0.00,CLR,SCT,0.00,WeatherDisplay:10.37,2013-03-30 12:49:00,
2013-03-30 04:54:00,39.0,37.4,29.65,ENE,68,0.0,0.0,94,0.00,CLR,SCT,0.00,WeatherDisplay:10.37,2013-03-30 12:54:00,
2013-03-30 05:00:00,39.2,37.6,29.65,ENE,68,0.0,0.0,94,0.00,CLR,SCT,0.00,WeatherDisplay:10.37,2013-03-30 13:00:00,
2013-03-30 05:05:00,39.2,37.6,29.65,ENE,68,0.0,0.0,94,0.00,CLR,SCT,0.00,WeatherDisplay:10.37,2013-03-30 13:05:00,
2013-03-30 05:10:00,39.2,37.6,29.65,ENE,68,0.0,0.0,94,0.00,CLR,SCT,0.00,WeatherDisplay:10.37,2013-03-30 13:10:00,
2013-03-30 05:15:00,39.2,37.6,29.65,ENE,68,0.0,0.0,94,0.00,CLR,SCT,0.00,WeatherDisplay:10.37,2013-03-30 13:15:00,
2013-03-30 05:20:00,39.4,37.8,29.65,ENE,68,0.0,0.0,94,0.00,CLR,SCT,0.00,WeatherDisplay:10.37,2013-03-30 13:20:00,
2013-03-30 05:25:00,39.6,38.0,29.65,ENE,68,0.0,0.0,94,0.00,CLR,SCT,0.00,WeatherDisplay:10.37,2013-03-30 13:25:00,
2013-03-30 05:30:00,39.9,38.3,29.65,ENE,68,0.0,0.0,94,0.00,CLR,SCT,0.00,WeatherDisplay:10.37,2013-03-30 13:30:00,
2013-03-30 05:35:00,40.3,38.7,29.65,ENE,68,0.0,0.0,94,0.00,CLR,SCT,0.00,WeatherDisplay:10.37,2013-03-30 13:35:00,
2013-03-30 05:40:00,40.5,38.9,29.65,ENE,68,0.0,0.0,94,0.00,CLR,SCT,0.00,WeatherDisplay:10.37,2013-03-30 13:40:00,
2013-03-30 05:45:00,40.6,39.0,29.65,ENE,68,0.0,0.0,94,0.00,CLR,SCT,0.00,WeatherDisplay:10.37,2013-03-30 13:45:00,
2013-03-30 05:50:00,40.6,39.3,29.68,ENE,68,0.0,0.0,95,0.00,CLR,SCT,0.00,WeatherDisplay:10.37,2013-03-30 13:50:00,
2013-03-30 05:55:00,40.8,39.5,29.68,ENE,68,0.0,0.0,95,0.00,CLR,SCT,0.00,WeatherDisplay:10.37,2013-03-30 13:55:00,
2013-03-30 06:00:00,41.0,39.4,29.68,ENE,68,0.0,0.0,94,0.00,CLR,SCT,0.00,WeatherDisplay:10.37,2013-03-30 14:00:00,
2013-03-30 06:05:00,41.0,39.4,29.68,ENE,68,0.0,0.0,94,0.00,CLR,SCT,0.00,WeatherDisplay:10.37,2013-03-30 14:05:00,
2013-03-30 06:10:00,41.0,39.4,29.68,ENE,68,0.0,0.0,94,0.00,CLR,SCT,0.00,WeatherDisplay:10.37,2013-03-30 14:10:00,
2013-03-30 06:15:00,41.0,39.4,29.68,ENE,68,0.0,0.0,94,0.00,CLR,SCT,0.00,WeatherDisplay:10.37,2013-03-30 14:15:00,
2013-03-30 06:20:00,41.0,39.4,29.68,ENE,68,0.0,0.0,94,0.00,CLR,SCT,0.00,WeatherDisplay:10.37,2013-03-30 14:20:00,
2013-03-30 06:25:00,41.0,39.4,29.68,ENE,68,0.0,0.0,94,0.00,CLR,SCT,0.00,WeatherDisplay:10.37,2013-03-30 14:25:00,
2013-03-30 06:30:00,41.0,39.4,29.68,ENE,68,0.0,0.0,94,0.00,CLR,SCT,0.00,WeatherDisplay:10.37,2013-03-30 14:30:00,
2013-03-30 06:35:00,41.0,39.4,29.68,ENE,68,0.0,0.0,94,0.00,CLR,SCT,0.00,WeatherDisplay:10.37,2013-03-30 14:35:00,
2013-03-30 06:40:00,41.0,39.4,29.68,ENE,68,0.0,0.0,94,0.00,CLR,SCT,0.00,WeatherDisplay:10.37,2013-03-30 14:40:00,
2013-03-30 06:45:00,40.8,39.5,29.68,ENE,68,0.0,0.0,95,0.00,CLR,SCT,0.00,WeatherDisplay:10.37,2013-03-30 14:45:00,
2013-03-30 06:50:00,40.8,39.5,29.68,ENE,68,0.0,0.0,95,0.00,CLR,SCT,0.00,WeatherDisplay:10.37,2013-03-30 14:50:00,
2013-03-30 06:55:00,41.0,39.4,29.68,ENE,68,0.0,0.0,94,0.00,CLR,SCT,0.00,WeatherDisplay:10.37,2013-03-30 14:55:00,
2013-03-30 07:00:00,41.2,39.6,29.68,ENE,68,0.0,0.0,94,0.00,CLR,SCT,0.00,WeatherDisplay:10.37,2013-03-30 15:00:00,
2013-03-30 07:05:00,41.4,40.0,29.68,ENE,68,0.0,0.0,95,0.00,CLR,SCT,0.00,WeatherDisplay:10.37,2013-03-30 15:05:00,
2013-03-30 07:10:00,41.5,40.2,29.68,ENE,68,0.0,0.0,95,0.00,CLR,SCT,0.00,WeatherDisplay:10.37,2013-03-30 15:10:00,
2013-03-30 07:15:00,41.7,40.4,29.68,ENE,68,0.0,0.0,95,0.00,CLR,SCT,0.00,WeatherDisplay:10.37,2013-03-30 15:15:00,
2013-03-30 07:20:00,42.1,40.8,29.68,ENE,68,0.0,0.0,95,0.00,CLR,SCT,0.00,WeatherDisplay:10.37,2013-03-30 15:20:00,
2013-03-30 07:25:00,42.4,41.1,29.68,ENE,68,3.5,3.5,95,0.00,CLR,SCT,0.00,WeatherDisplay:10.37,2013-03-30 15:25:00,
2013-03-30 07:30:00,42.8,41.2,29.68,ENE,68,3.5,0.0,94,0.00,CLR,SCT,0.00,WeatherDisplay:10.37,2013-03-30 15:30:00,
2013-03-30 07:35:00,42.8,41.2,29.68,SSE,158,2.3,0.0,94,0.00,CLR,SCT,0.00,WeatherDisplay:10.37,2013-03-30 15:35:00,
2013-03-30 07:40:00,42.8,41.2,29.68,SSE,158,0.0,0.0,94,0.00,CLR,SCT,0.00,WeatherDisplay:10.37,2013-03-30 15:40:00,
2013-03-30 07:45:00,43.0,41.4,29.68,SSE,158,0.0,0.0,94,0.00,CLR,SCT,0.00,WeatherDisplay:10.37,2013-03-30 15:45:00,
2013-03-30 07:50:00,43.2,41.6,29.68,SSE,158,0.0,0.0,94,0.00,CLR,SCT,0.00,WeatherDisplay:10.37,2013-03-30 15:50:00,
2013-03-30 07:55:00,43.3,41.7,29.68,SSE,158,0.0,0.0,94,0.00,CLR,SCT,0.00,WeatherDisplay:10.37,2013-03-30 15:55:00,
2013-03-30 08:00:00,43.3,41.7,29.68,SSE,158,0.0,0.0,94,0.00,CLR,SCT,0.00,WeatherDisplay:10.37,2013-03-30 16:00:00,
2013-03-30 08:05:00,43.5,41.9,29.71,SSE,158,0.0,0.0,94,0.00,CLR,SCT,0.00,WeatherDisplay:10.37,2013-03-30 16:05:00,
2013-03-30 08:10:00,43.5,41.9,29.71,SSE,158,0.0,0.0,94,0.00,CLR,SCT,0.00,WeatherDisplay:10.37,2013-03-30 16:10:00,
2013-03-30 08:15:00,43.5,41.9,29.71,SSE,158,0.0,0.0,94,0.00,CLR,SCT,0.00,WeatherDisplay:10.37,2013-03-30 16:15:00,
2013-03-30 08:20:00,43.5,41.9,29.71,SSE,158,0.0,0.0,94,0.00,CLR,SCT,0.00,WeatherDisplay:10.37,2013-03-30 16:20:00,
2013-03-30 08:25:00,43.7,42.1,29.71,SSE,158,0.0,0.0,94,0.00,CLR,SCT,0.00,WeatherDisplay:10.37,2013-03-30 16:25:00,
2013-03-30 08:30:00,43.9,42.3,29.71,SSE,158,0.0,0.0,94,0.00,CLR,SCT,0.00,WeatherDisplay:10.37,2013-03-30 16:30:00,
2013-03-30 08:35:00,43.9,42.3,29.71,SSE,158,0.0,0.0,94,0.00,CLR,SCT,0.00,WeatherDisplay:10.37,2013-03-30 16:35:00,
2013-03-30 08:40:00,44.1,42.7,29.71,SSE,158,0.0,0.0,95,0.00,CLR,SCT,0.00,WeatherDisplay:10.37,2013-03-30 16:40:00,
2013-03-30 08:45:00,44.2,42.9,29.71,SSE,158,0.0,0.0,95,0.00,CLR,SCT,0.00,WeatherDisplay:10.37,2013-03-30 16:45:00,
2013-03-30 08:50:00,44.4,43.1,29.71,SSE,158,0.0,0.0,95,0.00,CLR,SCT,0.00,WeatherDisplay:10.37,2013-03-30 16:50:00,
2013-03-30 08:55:00,45.0,43.3,29.71,SSE,158,0.0,0.0,94,0.00,CLR,SCT,0.00,WeatherDisplay:10.37,2013-03-30 16:55:00,
2013-03-30 09:00:00,45.3,43.7,29.71,SSE,158,0.0,0.0,94,0.00,CLR,SCT,0.00,WeatherDisplay:10.37,2013-03-30 17:00:00,
2013-03-30 09:05:00,45.3,43.7,29.71,SSE,158,0.0,0.0,94,0.00,CLR,SCT,0.00,WeatherDisplay:10.37,2013-03-30 17:05:00,
2013-03-30 09:10:00,45.5,43.9,29.71,SSE,158,0.0,0.0,94,0.00,CLR,SCT,0.00,WeatherDisplay:10.37,2013-03-30 17:10:00,
2013-03-30 09:15:00,45.7,44.1,29.71,SSE,158,0.0,0.0,94,0.00,CLR,SCT,0.00,WeatherDisplay:10.37,2013-03-30 17:15:00,
2013-03-30 09:20:00,45.3,43.7,29.74,SSE,158,0.0,0.0,94,0.00,CLR,SCT,0.00,WeatherDisplay:10.37,2013-03-30 17:20:00,
2013-03-30 09:25:00,44.8,43.2,29.74,SSE,158,0.0,0.0,94,0.00,CLR,SCT,0.00,WeatherDisplay:10.37,2013-03-30 17:25:00,
2013-03-30 09:30:00,44.4,43.1,29.74,SSE,158,0.0,0.0,95,0.00,CLR,SCT,0.00,WeatherDisplay:10.37,2013-03-30 17:30:00,
2013-03-30 09:35:00,43.7,42.4,29.74,SSE,158,0.0,0.0,95,0.00,CLR,SCT,0.00,WeatherDisplay:10.37,2013-03-30 17:35:00,
2013-03-30 09:40:00,43.7,42.4,29.74,SSE,158,0.0,0.0,95,0.00,CLR,SCT,0.00,WeatherDisplay:10.37,2013-03-30 17:40:00,
2013-03-30 09:45:00,41.7,40.4,29.74,SSE,158,0.0,0.0,95,0.00,CLR,SCT,0.00,WeatherDisplay:10.37,2013-03-30 17:45:00,
2013-03-30 09:50:00,41.0,39.7,29.74,SSE,158,0.0,0.0,95,0.00,CLR,SCT,0.00,WeatherDisplay:10.37,2013-03-30 17:50:00,
2013-03-30 09:55:00,39.9,38.9,29.74,SSE,158,0.0,0.0,96,0.00,CLR,SCT,0.00,WeatherDisplay:10.37,2013-03-30 17:55:00,
2013-03-30 10:01:00,39.6,38.5,29.74,SSE,158,0.0,0.0,96,0.00,CLR,SCT,0.00,WeatherDisplay:10.37,2013-03-30 18:01:00,
2013-03-30 10:06:00,38.8,37.8,29.74,SE,135,0.0,0.0,96,0.00,CLR,SCT,0.00,WeatherDisplay:10.37,2013-03-30 18:06:00,
2013-03-30 10:11:00,38.7,37.6,29.74,SE,135,0.0,0.0,96,0.00,CLR,SCT,0.00,WeatherDisplay:10.37,2013-03-30 18:11:00,
2013-03-30 10:16:00,39.0,38.0,29.74,SE,135,0.0,0.0,96,0.00,CLR,SCT,0.00,WeatherDisplay:10.37,2013-03-30 18:16:00,
2013-03-30 10:21:00,38.1,37.1,29.74,SE,135,0.0,0.0,96,0.00,CLR,SCT,0.00,WeatherDisplay:10.37,2013-03-30 18:21:00,
2013-03-30 10:26:00,38.5,37.4,29.74,SE,135,0.0,0.0,96,0.00,CLR,SCT,0.00,WeatherDisplay:10.37,2013-03-30 18:26:00,
2013-03-30 10:31:00,38.5,37.4,29.74,SE,135,0.0,0.0,96,0.00,CLR,SCT,0.00,WeatherDisplay:10.37,2013-03-30 18:31:00,
2013-03-30 10:36:00,37.9,36.9,29.77,SE,135,0.0,0.0,96,0.00,CLR,SCT,0.00,WeatherDisplay:10.37,2013-03-30 18:36:00,
2013-03-30 10:41:00,37.0,36.0,29.77,SE,135,2.6,2.6,96,0.00,CLR,SCT,0.00,WeatherDisplay:10.37,2013-03-30 18:41:00,
2013-03-30 10:46:00,36.9,35.6,29.77,SE,135,2.3,0.0,95,0.00,CLR,SCT,0.00,WeatherDisplay:10.37,2013-03-30 18:46:00,
2013-03-30 10:51:00,36.9,35.6,29.77,SE,135,2.3,0.0,95,0.00,CLR,SCT,0.00,WeatherDisplay:10.37,2013-03-30 18:51:00,
2013-03-30 10:56:00,37.0,35.7,29.77,SE,135,3.6,3.6,95,0.00,CLR,SCT,0.00,WeatherDisplay:10.37,2013-03-30 18:56:00,
2013-03-30 11:01:00,36.9,35.3,29.77,SE,135,3.5,3.5,94,0.00,CLR,SCT,0.00,WeatherDisplay:10.37,2013-03-30 19:01:00,
2013-03-30 11:06:00,36.9,35.3,29.77,SE,135,3.5,0.0,94,0.00,CLR,SCT,0.00,WeatherDisplay:10.37,2013-03-30 19:06:00,
2013-03-30 11:11:00,37.2,35.7,29.77,SE,135,2.6,0.0,94,0.00,CLR,SCT,0.00,WeatherDisplay:10.37,2013-03-30 19:11:00,
2013-03-30 11:17:00,36.9,35.0,29.77,SE,135,3.5,3.5,93,0.00,CLR,SCT,0.00,WeatherDisplay:10.37,2013-03-30 19:17:00,
2013-03-30 11:22:00,37.0,35.2,29.74,SE,135,0.0,0.0,93,0.00,CLR,SCT,0.00,WeatherDisplay:10.37,2013-03-30 19:22:00,
2013-03-30 11:27:00,36.7,34.6,29.74,SSE,158,3.5,3.5,92,0.00,CLR,SCT,0.00,WeatherDisplay:10.37,2013-03-30 19:27:00,
2013-03-30 11:32:00,36.7,34.3,29.74,SSE,158,2.3,2.3,91,0.00,CLR,SCT,0.00,WeatherDisplay:10.37,2013-03-30 19:32:00,
2013-03-30 11:37:00,36.9,34.2,29.77,SE,135,0.0,0.0,90,0.00,CLR,SCT,0.00,WeatherDisplay:10.37,2013-03-30 19:37:00,
2013-03-30 11:42:00,36.9,33.6,29.77,SE,135,0.0,0.0,88,0.00,CLR,SCT,0.00,WeatherDisplay:10.37,2013-03-30 19:42:00,
2013-03-30 11:47:00,36.7,33.2,29.77,SE,135,3.5,3.5,87,0.00,CLR,SCT,0.00,WeatherDisplay:10.37,2013-03-30 19:47:00,
2013-03-30 11:52:00,36.7,32.9,29.77,SE,135,3.5,0.0,86,0.00,CLR,SCT,0.00,WeatherDisplay:10.37,2013-03-30 19:52:00,
2013-03-30 11:57:00,36.9,32.8,29.77,SE,135,0.0,0.0,85,0.00,CLR,SCT,0.00,WeatherDisplay:10.37,2013-03-30 19:57:00,
2013-03-30 12:02:00,37.0,32.7,29.77,SE,135,0.0,0.0,84,0.00,CLR,SCT,0.00,WeatherDisplay:10.37,2013-03-30 20:02:00,
2013-03-30 12:07:00,37.2,32.5,29.77,SE,135,0.0,0.0,83,0.00,CLR,SCT,0.00,WeatherDisplay:10.37,2013-03-30 20:07:00,
2013-03-30 12:12:00,38.3,33.3,29.77,ESE,112,0.0,0.0,82,0.00,CLR,SCT,0.00,WeatherDisplay:10.37,2013-03-30 20:12:00,
2013-03-30 12:17:00,38.7,33.3,29.77,ESE,112,0.0,0.0,81,0.00,CLR,SCT,0.00,WeatherDisplay:10.37,2013-03-30 20:17:00,
2013-03-30 12:22:00,39.6,33.6,29.77,ESE,112,0.0,0.0,79,0.00,CLR,SCT,0.00,WeatherDisplay:10.37,2013-03-30 20:22:00,
2013-03-30 12:27:00,38.3,31.7,29.77,ESE,112,0.0,0.0,77,0.00,CLR,SCT,0.00,WeatherDisplay:10.37,2013-03-30 20:27:00,
2013-03-30 12:32:00,38.8,31.9,29.77,ESE,112,0.0,0.0,76,0.00,CLR,SCT,0.00,WeatherDisplay:10.37,2013-03-30 20:32:00,
2013-03-30 12:37:00,38.8,31.6,29.77,ESE,112,3.5,3.5,75,0.00,CLR,SCT,0.00,WeatherDisplay:10.37,2013-03-30 20:37:00,
2013-03-30 12:42:00,39.7,31.8,29.77,ESE,112,0.0,0.0,73,0.00,CLR,SCT,0.00,WeatherDisplay:10.37,2013-03-30 20:42:00,
2013-03-30 12:48:00,39.9,31.6,29.77,ESE,112,2.6,0.0,72,0.00,CLR,SCT,0.00,WeatherDisplay:10.37,2013-03-30 20:48:00,
2013-03-30 12:53:00,40.8,32.1,29.80,ESE,112,0.0,0.0,71,0.00,CLR,SCT,0.00,WeatherDisplay:10.37,2013-03-30 20:53:00,
2013-03-30 12:58:00,41.9,32.5,29.80,ESE,112,0.0,0.0,69,0.00,CLR,SCT,0.00,WeatherDisplay:10.37,2013-03-30 20:58:00,
2013-03-30 13:03:00,41.5,31.4,29.80,ESE,112,0.0,0.0,67,0.00,CLR,SCT,0.00,WeatherDisplay:10.37,2013-03-30 21:03:00,
2013-03-30 13:08:00,41.2,31.0,29.80,East,90,3.5,3.5,67,0.00,CLR,SCT,0.00,WeatherDisplay:10.37,2013-03-30 21:08:00,
2013-03-30 13:13:00,39.7,30.0,29.80,WNW,292,4.6,4.6,68,0.00,CLR,SCT,0.00,WeatherDisplay:10.37,2013-03-30 21:13:00,
2013-03-30 13:18:00,39.6,30.9,29.80,North,0,2.3,0.0,71,0.00,CLR,SCT,0.00,WeatherDisplay:10.37,2013-03-30 21:18:00,
2013-03-30 13:23:00,39.7,31.4,29.80,NNW,338,2.6,0.0,72,0.00,CLR,SCT,0.00,WeatherDisplay:10.37,2013-03-30 21:23:00,
2013-03-30 13:28:00,40.5,32.1,29.80,NNW,338,3.1,3.1,72,0.00,CLR,SCT,0.00,WeatherDisplay:10.37,2013-03-30 21:28:00,
2013-03-30 13:33:00,40.5,32.1,29.80,NNW,338,3.6,3.6,72,0.00,CLR,SCT,0.00,WeatherDisplay:10.37,2013-03-30 21:33:00,
2013-03-30 13:38:00,40.3,31.6,29.80,NNW,338,3.5,3.5,71,0.00,CLR,SCT,0.00,WeatherDisplay:10.37,2013-03-30 21:38:00,
2013-03-30 13:43:00,40.1,31.8,29.80,NNW,338,0.0,0.0,72,0.00,CLR,SCT,0.00,WeatherDisplay:10.37,2013-03-30 21:43:00,
2013-03-30 13:48:00,39.7,31.4,29.80,NNW,338,4.6,4.6,72,0.00,CLR,SCT,0.00,WeatherDisplay:10.37,2013-03-30 21:48:00,
2013-03-30 13:53:00,39.4,31.1,29.80,NW,315,4.6,4.6,72,0.00,CLR,SCT,0.00,WeatherDisplay:10.37,2013-03-30 21:53:00,
2013-03-30 13:58:00,39.6,31.6,29.80,NNW,338,3.5,0.0,73,0.00,CLR,SCT,0.00,WeatherDisplay:10.37,2013-03-30 21:58:00,
2013-03-30 14:03:00,39.9,32.0,29.80,NNW,338,3.6,3.6,73,0.00,CLR,SCT,0.00,WeatherDisplay:10.37,2013-03-30 22:03:00,
2013-03-30 14:08:00,40.5,32.1,29.80,NNW,338,3.5,0.0,72,0.00,CLR,SCT,0.00,WeatherDisplay:10.37,2013-03-30 22:08:00,
2013-03-30 14:13:00,40.8,32.1,29.80,NNW,338,2.3,2.3,71,0.00,CLR,SCT,0.00,WeatherDisplay:10.37,2013-03-30 22:13:00,
2013-03-30 14:18:00,41.0,32.0,29.80,NNW,338,4.6,4.6,70,0.00,CLR,SCT,0.00,WeatherDisplay:10.37,2013-03-30 22:18:00,
2013-03-30 14:23:00,41.4,31.9,29.80,NW,315,3.5,3.5,69,0.00,CLR,SCT,0.00,WeatherDisplay:10.37,2013-03-30 22:23:00,
2013-03-30 14:28:00,41.5,31.4,29.80,NW,315,5.9,5.9,67,0.00,CLR,SCT,0.00,WeatherDisplay:10.37,2013-03-30 22:28:00,
2013-03-30 14:33:00,41.5,31.4,29.80,NW,315,4.9,0.0,67,0.00,CLR,SCT,0.00,WeatherDisplay:10.37,2013-03-30 22:33:00,
2013-03-30 14:38:00,42.1,31.9,29.80,NW,315,4.6,4.6,67,0.00,CLR,SCT,0.00,WeatherDisplay:10.37,2013-03-30 22:38:00,
2013-03-30 14:43:00,41.5,31.0,29.80,NNW,338,3.6,0.0,66,0.00,CLR,SCT,0.00,WeatherDisplay:10.37,2013-03-30 22:43:00,
2013-03-30 14:48:00,42.8,31.5,29.80,NNW,338,0.0,0.0,64,0.00,CLR,SCT,0.00,WeatherDisplay:10.37,2013-03-30 22:48:00,
2013-03-30 14:53:00,43.2,31.4,29.80,North,0,3.5,0.0,63,0.00,CLR,SCT,0.00,WeatherDisplay:10.37,2013-03-30 22:53:00,
2013-03-30 14:58:00,43.3,30.8,29.80,North,0,3.5,3.5,61,0.00,CLR,SCT,0.00,WeatherDisplay:10.37,2013-03-30 22:58:00,
2013-03-30 15:03:00,43.7,31.1,29.80,North,0,3.5,0.0,61,0.00,CLR,SCT,0.00,WeatherDisplay:10.37,2013-03-30 23:03:00,
2013-03-30 15:08:00,42.4,29.9,29.80,NW,315,4.6,4.6,61,0.00,CLR,SCT,0.00,WeatherDisplay:10.37,2013-03-30 23:08:00,
2013-03-30 15:13:00,41.7,30.0,29.80,NW,315,6.9,6.9,63,0.00,CLR,SCT,0.00,WeatherDisplay:10.37,2013-03-30 23:13:00,
2013-03-30 15:18:00,41.5,30.3,29.80,NNW,338,5.9,5.9,64,0.00,CLR,SCT,0.00,WeatherDisplay:10.37,2013-03-30 23:18:00,
2013-03-30 15:23:00,41.5,30.6,29.80,NNW,338,5.8,5.8,65,0.00,CLR,SCT,0.00,WeatherDisplay:10.37,2013-03-30 23:23:00,
2013-03-30 15:28:00,41.7,30.8,29.80,NNW,338,4.6,4.6,65,0.00,CLR,SCT,0.00,WeatherDisplay:10.37,2013-03-30 23:28:00,
2013-03-30 15:33:00,42.3,31.3,29.83,NW,315,5.9,5.9,65,0.00,CLR,SCT,0.00,WeatherDisplay:10.37,2013-03-30 23:33:00,
2013-03-30 15:38:00,43.0,31.2,29.83,NNW,338,4.6,0.0,63,0.00,CLR,SCT,0.00,WeatherDisplay:10.37,2013-03-30 23:38:00,
2013-03-30 15:43:00,44.8,32.1,29.83,NNW,338,3.5,3.5,61,0.00,CLR,SCT,0.00,WeatherDisplay:10.37,2013-03-30 23:43:00,
2013-03-30 15:48:00,44.6,30.7,29.80,NNW,338,3.5,3.5,58,0.00,CLR,SCT,0.00,WeatherDisplay:10.37,2013-03-30 23:48:00,
2013-03-30 15:53:00,45.3,31.0,29.80,North,0,4.6,0.0,57,0.00,CLR,SCT,0.00,WeatherDisplay:10.37,2013-03-30 23:53:00,
2013-03-30 15:58:00,45.0,29.8,29.80,NNW,338,4.6,4.6,55,0.00,CLR,SCT,0.00,WeatherDisplay:10.37,2013-03-30 23:58:00,
2013-03-30 16:03:00,45.1,30.4,29.83,NNW,338,5.8,5.8,56,0.00,CLR,SCT,0.00,WeatherDisplay:10.37,2013-03-31 00:03:00,
2013-03-30 16:08:00,43.9,29.2,29.83,NW,315,4.6,4.6,56,0.00,CLR,SCT,0.00,WeatherDisplay:10.37,2013-03-31 00:08:00,
2013-03-30 16:13:00,43.0,29.2,29.83,NW,315,5.8,5.8,58,0.00,CLR,SCT,0.00,WeatherDisplay:10.37,2013-03-31 00:13:00,
2013-03-30 16:18:00,41.9,29.0,29.83,North,0,5.8,5.8,60,0.00,CLR,SCT,0.00,WeatherDisplay:10.37,2013-03-31 00:18:00,
2013-03-30 16:23:00,42.6,30.1,29.83,NW,315,5.9,0.0,61,0.00,CLR,SCT,0.00,WeatherDisplay:10.37,2013-03-31 00:23:00,
2013-03-30 16:28:00,41.9,29.4,29.83,NNW,338,8.1,8.1,61,0.00,CLR,SCT,0.00,WeatherDisplay:10.37,2013-03-31 00:28:00,
2013-03-30 16:33:00,41.5,29.5,29.83,WNW,292,8.1,8.1,62,0.00,CLR,SCT,0.00,WeatherDisplay:10.37,2013-03-31 00:33:00,
2013-03-30 16:38:00,41.7,29.6,29.83,WNW,292,5.8,5.8,62,0.00,CLR,SCT,0.00,WeatherDisplay:10.37,2013-03-31 00:38:00,
2013-03-30 16:43:00,41.5,29.5,29.83,NNW,338,6.2,6.2,62,0.00,CLR,SCT,0.00,WeatherDisplay:10.37,2013-03-31 00:43:00,
2013-03-30 16:48:00,41.0,29.0,29.83,NW,315,6.7,6.7,62,0.00,CLR,SCT,0.00,WeatherDisplay:10.37,2013-03-31 00:48:00,
2013-03-30 16:53:00,41.5,29.5,29.83,NNW,338,5.8,5.8,62,0.00,CLR,SCT,0.00,WeatherDisplay:10.37,2013-03-31 00:53:00,
2013-03-30 16:58:00,42.1,29.6,29.83,NNW,338,4.6,4.6,61,0.00,CLR,SCT,0.00,WeatherDisplay:10.37,2013-03-31 00:58:00,
2013-03-30 17:03:00,42.1,29.2,29.83,NW,315,4.6,4.6,60,0.00,CLR,SCT,0.00,WeatherDisplay:10.37,2013-03-31 01:03:00,
2013-03-30 17:08:00,42.3,29.4,29.83,NNW,338,5.8,5.8,60,0.00,CLR,SCT,0.00,WeatherDisplay:10.37,2013-03-31 01:08:00,
2013-03-30 17:13:00,41.5,28.7,29.83,NNW,338,3.6,3.6,60,0.00,CLR,SCT,0.00,WeatherDisplay:10.37,2013-03-31 01:13:00,
2013-03-30 17:18:00,41.7,29.3,29.83,NNW,338,5.8,5.8,61,0.00,CLR,SCT,0.00,WeatherDisplay:10.37,2013-03-31 01:18:00,
2013-03-30 17:23:00,41.7,29.3,29.83,NNW,338,3.5,3.5,61,0.00,CLR,SCT,0.00,WeatherDisplay:10.37,2013-03-31 01:23:00,
2013-03-30 17:28:00,41.7,29.3,29.83,NNW,338,3.5,3.5,61,0.00,CLR,SCT,0.00,WeatherDisplay:10.37,2013-03-31 01:28:00,
2013-03-30 17:34:00,42.1,29.6,29.80,NW,315,4.6,4.6,61,0.00,CLR,SCT,0.00,WeatherDisplay:10.37,2013-03-31 01:34:00,
2013-03-30 17:39:00,41.9,29.0,29.80,NNW,338,4.6,4.6,60,0.00,CLR,SCT,0.00,WeatherDisplay:10.37,2013-03-31 01:39:00,
2013-03-30 17:44:00,41.5,28.7,29.80,NNW,338,5.8,5.8,60,0.00,CLR,SCT,0.00,WeatherDisplay:10.37,2013-03-31 01:44:00,
2013-03-30 17:49:00,41.2,28.7,29.83,North,0,5.9,5.9,61,0.00,CLR,SCT,0.00,WeatherDisplay:10.37,2013-03-31 01:49:00,
2013-03-30 17:54:00,40.8,28.8,29.83,NNW,338,5.8,5.8,62,0.00,CLR,SCT,0.00,WeatherDisplay:10.37,2013-03-31 01:54:00,
2013-03-30 17:59:00,40.6,28.6,29.83,NNW,338,4.9,4.9,62,0.00,CLR,SCT,0.00,WeatherDisplay:10.37,2013-03-31 01:59:00,
2013-03-30 18:04:00,40.5,28.8,29.83,NNW,338,3.5,3.5,63,0.00,CLR,SCT,0.00,WeatherDisplay:10.37,2013-03-31 02:04:00,
2013-03-30 18:09:00,40.3,28.7,29.83,NW,315,3.5,3.5,63,0.00,CLR,SCT,0.00,WeatherDisplay:10.37,2013-03-31 02:09:00,
2013-03-30 18:14:00,40.3,28.7,29.83,NNW,338,4.6,4.6,63,0.00,CLR,SCT,0.00,WeatherDisplay:10.37,2013-03-31 02:14:00,
2013-03-30 18:19:00,40.3,29.1,29.83,NW,315,3.6,3.6,64,0.00,CLR,SCT,0.00,WeatherDisplay:10.37,2013-03-31 02:19:00,
2013-03-30 18:24:00,40.1,28.9,29.83,NNW,338,4.6,4.6,64,0.00,CLR,SCT,0.00,WeatherDisplay:10.37,2013-03-31 02:24:00,
2013-03-30 18:29:00,40.1,29.3,29.83,NW,315,4.6,4.6,65,0.00,CLR,SCT,0.00,WeatherDisplay:10.37,2013-03-31 02:29:00,
2013-03-30 18:34:00,39.9,29.1,29.83,NNW,338,4.0,4.0,65,0.00,CLR,SCT,0.00,WeatherDisplay:10.37,2013-03-31 02:34:00,
2013-03-30 18:39:00,39.9,29.1,29.83,NNW,338,4.6,4.6,65,0.00,CLR,SCT,0.00,WeatherDisplay:10.37,2013-03-31 02:39:00,
2013-03-30 18:44:00,39.7,29.3,29.83,NNW,338,3.5,0.0,66,0.00,CLR,SCT,0.00,WeatherDisplay:10.37,2013-03-31 02:44:00,
2013-03-30 18:49:00,39.6,29.1,29.83,NNW,338,2.6,0.0,66,0.00,CLR,SCT,0.00,WeatherDisplay:10.37,2013-03-31 02:49:00,
2013-03-30 18:54:00,39.2,29.2,29.83,NNW,338,0.0,0.0,67,0.00,CLR,SCT,0.00,WeatherDisplay:10.37,2013-03-31 02:54:00,
2013-03-30 18:59:00,39.0,29.3,29.83,NNW,338,3.5,3.5,68,0.00,CLR,SCT,0.00,WeatherDisplay:10.37,2013-03-31 02:59:00,
2013-03-30 19:04:00,38.8,29.2,29.83,NNW,338,0.0,0.0,68,0.00,CLR,SCT,0.00,WeatherDisplay:10.37,2013-03-31 03:04:00,
2013-03-30 19:09:00,38.5,29.2,29.83,NW,315,3.5,0.0,69,0.00,CLR,SCT,0.00,WeatherDisplay:10.37,2013-03-31 03:09:00,
2013-03-30 19:14:00,38.3,29.0,29.83,NW,315,0.0,0.0,69,0.00,CLR,SCT,0.00,WeatherDisplay:10.37,2013-03-31 03:14:00,
2013-03-30 19:19:00,37.9,28.7,29.83,NW,315,0.0,0.0,69,0.00,CLR,SCT,0.00,WeatherDisplay:10.37,2013-03-31 03:19:00,
2013-03-30 19:24:00,37.9,29.0,29.83,NW,315,0.0,0.0,70,0.00,CLR,SCT,0.00,WeatherDisplay:10.37,2013-03-31 03:24:00,
2013-03-30 19:29:00,37.6,29.0,29.83,NW,315,2.6,0.0,71,0.00,CLR,SCT,0.00,WeatherDisplay:10.37,2013-03-31 03:29:00,
2013-03-30 19:34:00,37.6,29.0,29.83,NW,315,2.6,2.6,71,0.00,CLR,SCT,0.00,WeatherDisplay:10.37,2013-03-31 03:34:00,
2013-03-30 19:39:00,37.6,29.4,29.83,NW,315,2.3,0.0,72,0.00,CLR,SCT,0.00,WeatherDisplay:10.37,2013-03-31 03:39:00,
2013-03-30 19:44:00,37.6,29.4,29.83,NW,315,0.0,0.0,72,0.00,CLR,SCT,0.00,WeatherDisplay:10.37,2013-03-31 03:44:00,
2013-03-30 19:49:00,37.6,29.7,29.83,NW,315,0.0,0.0,73,0.00,CLR,SCT,0.00,WeatherDisplay:10.37,2013-03-31 03:49:00,
2013-03-30 19:54:00,37.4,29.5,29.83,NW,315,0.0,0.0,73,0.00,CLR,SCT,0.00,WeatherDisplay:10.37,2013-03-31 03:54:00,
2013-03-30 19:59:00,37.4,29.9,29.83,NW,315,0.0,0.0,74,0.00,CLR,SCT,0.00,WeatherDisplay:10.37,2013-03-31 03:59:00,
2013-03-30 20:00:00,37.4,29.9,29.83,NW,315,0.0,0.0,74,0.00,CLR,SCT,0.00,WeatherDisplay:10.37,2013-03-31 04:00:00,
2013-03-30 20:05:00,37.2,29.7,29.85,NW,315,0.0,0.0,74,0.00,CLR,SCT,0.00,WeatherDisplay:10.37,2013-03-31 04:05:00,
2013-03-30 20:10:00,37.2,30.0,29.85,NNW,338,3.6,0.0,75,0.00,CLR,SCT,0.00,WeatherDisplay:10.37,2013-03-31 04:10:00,
2013-03-30 20:15:00,37.8,30.5,29.85,NNW,338,0.0,0.0,75,0.00,CLR,SCT,0.00,WeatherDisplay:10.37,2013-03-31 04:15:00,
2013-03-30 20:20:00,38.1,31.2,29.85,NNW,338,0.0,0.0,76,0.00,CLR,SCT,0.00,WeatherDisplay:10.37,2013-03-31 04:20:00,
2013-03-30 20:25:00,37.9,31.0,29.85,NNW,338,0.0,0.0,76,0.00,CLR,SCT,0.00,WeatherDisplay:10.37,2013-03-31 04:25:00,
2013-03-30 20:30:00,37.9,31.0,29.85,SSE,158,4.9,4.9,76,0.00,CLR,SCT,0.00,WeatherDisplay:10.37,2013-03-31 04:30:00,
2013-03-30 20:35:00,37.4,31.5,29.85,SE,135,8.1,8.1,79,0.00,CLR,SCT,0.00,WeatherDisplay:10.37,2013-03-31 04:35:00,
2013-03-30 20:40:00,37.4,31.8,29.85,SSE,158,5.8,5.8,80,0.00,CLR,SCT,0.00,WeatherDisplay:10.37,2013-03-31 04:40:00,
2013-03-30 20:45:00,37.4,32.7,29.85,SSE,158,3.5,3.5,83,0.00,CLR,SCT,0.00,WeatherDisplay:10.37,2013-03-31 04:45:00,
2013-03-30 20:50:00,37.6,33.2,29.85,SE,135,4.6,4.6,84,0.00,CLR,SCT,0.00,WeatherDisplay:10.37,2013-03-31 04:50:00,
2013-03-30 20:55:00,38.1,34.3,29.85,SE,135,0.0,0.0,86,0.00,CLR,SCT,0.00,WeatherDisplay:10.37,2013-03-31 04:55:00,
2013-03-30 21:00:00,37.9,34.4,29.85,SE,135,0.0,0.0,87,0.00,CLR,SCT,0.00,WeatherDisplay:10.37,2013-03-31 05:00:00,
2013-03-30 21:05:00,38.1,34.6,29.85,SE,135,0.0,0.0,87,0.00,CLR,SCT,0.00,WeatherDisplay:10.37,2013-03-31 05:05:00,
2013-03-30 21:10:00,38.5,35.2,29.85,SE,135,0.0,0.0,88,0.00,CLR,SCT,0.00,WeatherDisplay:10.37,2013-03-31 05:10:00,
2013-03-30 21:15:00,38.7,35.7,29.85,SE,135,0.0,0.0,89,0.00,CLR,SCT,0.00,WeatherDisplay:10.37,2013-03-31 05:15:00,
2013-03-30 21:20:00,38.8,35.9,29.85,ENE,68,0.0,0.0,89,0.00,CLR,SCT,0.00,WeatherDisplay:10.37,2013-03-31 05:20:00,
2013-03-30 21:25:00,38.8,36.2,29.85,ENE,68,0.0,0.0,90,0.00,CLR,SCT,0.00,WeatherDisplay:10.37,2013-03-31 05:25:00,
2013-03-30 21:30:00,38.8,36.2,29.85,ENE,68,0.0,0.0,90,0.00,CLR,SCT,0.00,WeatherDisplay:10.37,2013-03-31 05:30:00,
2013-03-30 21:35:00,39.0,36.6,29.85,ENE,68,0.0,0.0,91,0.00,CLR,SCT,0.00,WeatherDisplay:10.37,2013-03-31 05:35:00,
2013-03-30 21:40:00,39.2,36.8,29.85,ENE,68,0.0,0.0,91,0.00,CLR,SCT,0.00,WeatherDisplay:10.37,2013-03-31 05:40:00,
2013-03-30 21:45:00,39.4,37.0,29.85,ENE,68,0.0,0.0,91,0.00,CLR,SCT,0.00,WeatherDisplay:10.37,2013-03-31 05:45:00,
2013-03-30 21:50:00,39.6,37.2,29.85,ENE,68,0.0,0.0,91,0.00,CLR,SCT,0.00,WeatherDisplay:10.37,2013-03-31 05:50:00,
2013-03-30 21:55:00,39.7,37.6,29.85,ENE,68,0.0,0.0,92,0.00,CLR,SCT,0.00,WeatherDisplay:10.37,2013-03-31 05:55:00,
2013-03-30 22:00:00,39.7,37.6,29.85,ENE,68,0.0,0.0,92,0.00,CLR,SCT,0.00,WeatherDisplay:10.37,2013-03-31 06:00:00,
2013-03-30 22:05:00,39.7,37.6,29.88,ENE,68,0.0,0.0,92,0.00,CLR,SCT,0.00,WeatherDisplay:10.37,2013-03-31 06:05:00,
2013-03-30 22:11:00,39.7,37.6,29.88,ENE,68,0.0,0.0,92,0.00,CLR,SCT,0.00,WeatherDisplay:10.37,2013-03-31 06:11:00,
2013-03-30 22:16:00,39.6,37.4,29.88,ENE,68,0.0,0.0,92,0.00,CLR,SCT,0.00,WeatherDisplay:10.37,2013-03-31 06:16:00,
2013-03-30 22:21:00,39.6,37.7,29.85,ENE,68,0.0,0.0,93,0.00,CLR,SCT,0.00,WeatherDisplay:10.37,2013-03-31 06:21:00,
2013-03-30 22:26:00,39.6,37.7,29.85,ENE,68,0.0,0.0,93,0.00,CLR,SCT,0.00,WeatherDisplay:10.37,2013-03-31 06:26:00,
2013-03-30 22:31:00,39.7,37.9,29.85,ENE,68,0.0,0.0,93,0.00,CLR,SCT,0.00,WeatherDisplay:10.37,2013-03-31 06:31:00,
2013-03-30 22:36:00,39.9,38.1,29.85,ENE,68,0.0,0.0,93,0.00,CLR,SCT,0.00,WeatherDisplay:10.37,2013-03-31 06:36:00,
2013-03-30 22:41:00,40.1,38.2,29.85,ENE,68,0.0,0.0,93,0.00,CLR,SCT,0.00,WeatherDisplay:10.37,2013-03-31 06:41:00,
2013-03-30 22:46:00,40.3,38.4,29.85,ENE,68,0.0,0.0,93,0.00,CLR,SCT,0.00,WeatherDisplay:10.37,2013-03-31 06:46:00,
2013-03-30 22:51:00,40.5,38.9,29.85,ENE,68,0.0,0.0,94,0.00,CLR,SCT,0.00,WeatherDisplay:10.37,2013-03-31 06:51:00,
2013-03-30 22:56:00,40.5,38.9,29.85,ENE,68,0.0,0.0,94,0.00,CLR,SCT,0.00,WeatherDisplay:10.37,2013-03-31 06:56:00,
2013-03-30 23:01:00,40.6,39.0,29.85,ENE,68,0.0,0.0,94,0.00,CLR,SCT,0.00,WeatherDisplay:10.37,2013-03-31 07:01:00,
2013-03-30 23:06:00,40.8,39.2,29.85,ENE,68,0.0,0.0,94,0.00,CLR,SCT,0.00,WeatherDisplay:10.37,2013-03-31 07:06:00,
2013-03-30 23:11:00,40.8,39.2,29.85,ENE,68,0.0,0.0,94,0.00,CLR,SCT,0.00,WeatherDisplay:10.37,2013-03-31 07:11:00,
2013-03-30 23:16:00,41.0,39.4,29.85,ENE,68,0.0,0.0,94,0.00,CLR,SCT,0.00,WeatherDisplay:10.37,2013-03-31 07:16:00,
2013-03-30 23:22:00,41.2,39.6,29.88,ENE,68,0.0,0.0,94,0.00,CLR,SCT,0.00,WeatherDisplay:10.37,2013-03-31 07:22:00,
2013-03-30 23:27:00,41.2,39.6,29.88,ENE,68,0.0,0.0,94,0.00,CLR,SCT,0.00,WeatherDisplay:10.37,2013-03-31 07:27:00,
2013-03-30 23:32:00,41.2,39.6,29.88,ENE,68,0.0,0.0,94,0.00,CLR,SCT,0.00,WeatherDisplay:10.37,2013-03-31 07:32:00,
2013-03-30 23:37:00,41.2,39.6,29.88,ENE,68,0.0,0.0,94,0.00,CLR,SCT,0.00,WeatherDisplay:10.37,2013-03-31 07:37:00,
2013-03-30 23:42:00,41.4,39.8,29.88,ENE,68,0.0,0.0,94,0.00,CLR,SCT,0.00,WeatherDisplay:10.37,2013-03-31 07:42:00,
2013-03-30 23:47:00,41.5,39.9,29.88,ENE,68,0.0,0.0,94,0.00,CLR,SCT,0.00,WeatherDisplay:10.37,2013-03-31 07:47:00,
2013-03-30 23:52:00,41.5,39.9,29.88,ENE,68,0.0,0.0,94,0.00,CLR,SCT,0.00,WeatherDisplay:10.37,2013-03-31 07:52:00,
2013-03-30 23:57:00,41.7,40.1,29.88,ENE,68,0.0,0.0,94,0.00,CLR,SCT,0.00,WeatherDisplay:10.37,2013-03-31 07:57:00,